sensor_id;sensor_type;location;lat;lon;timestamp;P1;durP1;ratioP1;P2;durP2;ratioP2
2107;SDS011;1060;52.492;13.388;2023-05-16T00:02:43;10.60;;;9.57;;
2107;SDS011;1060;52.492;13.388;2023-05-16T00:16:58;11.77;;;10.83;;
2107;SDS011;1060;52.492;13.388;2023-05-16T00:33:19;13.00;;;12.00;;
2107;SDS011;1060;52.492;13.388;2023-05-16T00:36:28;12.87;;;11.87;;
2107;SDS011;1060;52.492;13.388;2023-05-16T00:38:55;14.33;;;12.90;;
2107;SDS011;1060;52.492;13.388;2023-05-16T00:41:22;13.60;;;12.70;;
2107;SDS011;1060;52.492;13.388;2023-05-16T00:43:48;12.07;;;11.07;;
2107;SDS011;1060;52.492;13.388;2023-05-16T00:46:14;13.57;;;12.37;;
2107;SDS011;1060;52.492;13.388;2023-05-16T00:48:40;14.77;;;13.70;;
2107;SDS011;1060;52.492;13.388;2023-05-16T00:51:15;22.93;;;14.87;;
2107;SDS011;1060;52.492;13.388;2023-05-16T00:53:44;14.47;;;12.77;;
2107;SDS011;1060;52.492;13.388;2023-05-16T00:56:11;15.93;;;14.53;;
2107;SDS011;1060;52.492;13.388;2023-05-16T00:58:37;20.30;;;15.70;;
2107;SDS011;1060;52.492;13.388;2023-05-16T01:01:03;16.70;;;15.03;;
2107;SDS011;1060;52.492;13.388;2023-05-16T01:03:30;17.57;;;16.07;;
2107;SDS011;1060;52.492;13.388;2023-05-16T01:05:58;16.90;;;14.67;;
2107;SDS011;1060;52.492;13.388;2023-05-16T01:08:24;20.40;;;18.67;;
2107;SDS011;1060;52.492;13.388;2023-05-16T01:10:56;18.80;;;17.10;;
2107;SDS011;1060;52.492;13.388;2023-05-16T01:13:35;18.60;;;17.00;;
2107;SDS011;1060;52.492;13.388;2023-05-16T01:16:12;20.77;;;18.93;;
2107;SDS011;1060;52.492;13.388;2023-05-16T01:18:46;21.53;;;19.80;;
2107;SDS011;1060;52.492;13.388;2023-05-16T01:21:22;21.67;;;19.93;;
2107;SDS011;1060;52.492;13.388;2023-05-16T01:24:26;21.63;;;19.63;;
2107;SDS011;1060;52.492;13.388;2023-05-16T01:26:44;21.67;;;19.70;;
2107;SDS011;1060;52.492;13.388;2023-05-16T01:29:11;22.67;;;20.57;;
2107;SDS011;1060;52.492;13.388;2023-05-16T01:31:37;22.97;;;20.97;;
2107;SDS011;1060;52.492;13.388;2023-05-16T01:34:03;25.17;;;22.90;;
2107;SDS011;1060;52.492;13.388;2023-05-16T01:44:15;18.30;;;16.60;;
2107;SDS011;1060;52.492;13.388;2023-05-16T01:46:42;20.70;;;18.70;;
2107;SDS011;1060;52.492;13.388;2023-05-16T01:49:18;22.17;;;19.93;;
2107;SDS011;1060;52.492;13.388;2023-05-16T01:51:48;23.03;;;19.27;;
2107;SDS011;1060;52.492;13.388;2023-05-16T01:54:19;19.00;;;17.20;;
2107;SDS011;1060;52.492;13.388;2023-05-16T01:56:53;22.80;;;20.50;;
2107;SDS011;1060;52.492;13.388;2023-05-16T01:59:20;19.10;;;17.23;;
2107;SDS011;1060;52.492;13.388;2023-05-16T02:01:47;19.10;;;17.40;;
2107;SDS011;1060;52.492;13.388;2023-05-16T02:04:13;19.07;;;17.37;;
2107;SDS011;1060;52.492;13.388;2023-05-16T02:06:41;20.40;;;18.50;;
2107;SDS011;1060;52.492;13.388;2023-05-16T02:09:07;19.07;;;17.33;;
2107;SDS011;1060;52.492;13.388;2023-05-16T02:11:33;18.30;;;16.57;;
2107;SDS011;1060;52.492;13.388;2023-05-16T02:14:02;20.17;;;18.13;;
2107;SDS011;1060;52.492;13.388;2023-05-16T02:16:29;19.67;;;17.63;;
2107;SDS011;1060;52.492;13.388;2023-05-16T02:18:57;19.13;;;17.10;;
2107;SDS011;1060;52.492;13.388;2023-05-16T02:21:23;18.67;;;17.23;;
2107;SDS011;1060;52.492;13.388;2023-05-16T02:23:54;17.03;;;15.47;;
2107;SDS011;1060;52.492;13.388;2023-05-16T02:26:20;18.07;;;16.27;;
2107;SDS011;1060;52.492;13.388;2023-05-16T02:28:47;18.03;;;16.33;;
2107;SDS011;1060;52.492;13.388;2023-05-16T02:31:26;20.07;;;18.27;;
2107;SDS011;1060;52.492;13.388;2023-05-16T02:33:53;18.20;;;16.43;;
2107;SDS011;1060;52.492;13.388;2023-05-16T02:36:19;17.53;;;15.90;;
2107;SDS011;1060;52.492;13.388;2023-05-16T02:38:46;19.40;;;17.27;;
2107;SDS011;1060;52.492;13.388;2023-05-16T02:41:13;20.07;;;18.17;;
2107;SDS011;1060;52.492;13.388;2023-05-16T02:43:40;19.80;;;16.03;;
2107;SDS011;1060;52.492;13.388;2023-05-16T02:46:27;18.63;;;16.93;;
2107;SDS011;1060;52.492;13.388;2023-05-16T02:48:54;15.87;;;14.47;;
2107;SDS011;1060;52.492;13.388;2023-05-16T02:51:25;18.80;;;17.20;;
2107;SDS011;1060;52.492;13.388;2023-05-16T02:54:00;19.03;;;17.13;;
2107;SDS011;1060;52.492;13.388;2023-05-16T02:56:26;18.53;;;16.70;;
2107;SDS011;1060;52.492;13.388;2023-05-16T02:58:53;19.77;;;17.87;;
2107;SDS011;1060;52.492;13.388;2023-05-16T03:01:20;18.83;;;17.03;;
2107;SDS011;1060;52.492;13.388;2023-05-16T03:03:53;22.30;;;18.30;;
2107;SDS011;1060;52.492;13.388;2023-05-16T03:06:19;17.67;;;16.00;;
2107;SDS011;1060;52.492;13.388;2023-05-16T03:08:45;18.73;;;17.13;;
2107;SDS011;1060;52.492;13.388;2023-05-16T03:11:12;19.77;;;17.97;;
2107;SDS011;1060;52.492;13.388;2023-05-16T03:13:39;19.47;;;17.57;;
2107;SDS011;1060;52.492;13.388;2023-05-16T03:16:06;21.03;;;18.90;;
2107;SDS011;1060;52.492;13.388;2023-05-16T03:18:34;23.13;;;16.77;;
2107;SDS011;1060;52.492;13.388;2023-05-16T03:21:00;20.40;;;18.63;;
2107;SDS011;1060;52.492;13.388;2023-05-16T03:23:27;22.70;;;20.40;;
2107;SDS011;1060;52.492;13.388;2023-05-16T03:25:54;20.60;;;18.90;;
2107;SDS011;1060;52.492;13.388;2023-05-16T03:28:20;19.83;;;18.07;;
2107;SDS011;1060;52.492;13.388;2023-05-16T03:30:47;22.57;;;20.57;;
2107;SDS011;1060;52.492;13.388;2023-05-16T03:33:13;24.83;;;22.33;;
2107;SDS011;1060;52.492;13.388;2023-05-16T03:35:39;20.43;;;17.77;;
2107;SDS011;1060;52.492;13.388;2023-05-16T03:38:05;21.40;;;19.50;;
2107;SDS011;1060;52.492;13.388;2023-05-16T03:40:32;19.83;;;18.23;;
2107;SDS011;1060;52.492;13.388;2023-05-16T03:42:58;21.20;;;19.27;;
2107;SDS011;1060;52.492;13.388;2023-05-16T03:45:24;19.17;;;17.33;;
2107;SDS011;1060;52.492;13.388;2023-05-16T03:47:50;22.67;;;20.73;;
2107;SDS011;1060;52.492;13.388;2023-05-16T03:50:17;25.30;;;22.60;;
2107;SDS011;1060;52.492;13.388;2023-05-16T03:52:43;23.60;;;21.40;;
2107;SDS011;1060;52.492;13.388;2023-05-16T03:55:09;21.67;;;19.63;;
2107;SDS011;1060;52.492;13.388;2023-05-16T03:57:38;23.80;;;21.53;;
2107;SDS011;1060;52.492;13.388;2023-05-16T04:00:04;21.37;;;19.23;;
2107;SDS011;1060;52.492;13.388;2023-05-16T04:02:39;21.47;;;19.53;;
2107;SDS011;1060;52.492;13.388;2023-05-16T04:05:07;23.63;;;21.33;;
2107;SDS011;1060;52.492;13.388;2023-05-16T04:07:33;24.47;;;21.97;;
2107;SDS011;1060;52.492;13.388;2023-05-16T04:09:59;25.07;;;22.50;;
2107;SDS011;1060;52.492;13.388;2023-05-16T04:12:26;26.73;;;23.17;;
2107;SDS011;1060;52.492;13.388;2023-05-16T04:14:52;27.70;;;22.70;;
2107;SDS011;1060;52.492;13.388;2023-05-16T04:17:18;25.67;;;23.37;;
2107;SDS011;1060;52.492;13.388;2023-05-16T04:19:44;28.40;;;25.50;;
2107;SDS011;1060;52.492;13.388;2023-05-16T04:22:11;26.73;;;23.97;;
2107;SDS011;1060;52.492;13.388;2023-05-16T04:24:37;27.00;;;24.47;;
2107;SDS011;1060;52.492;13.388;2023-05-16T04:27:07;23.00;;;20.63;;
2107;SDS011;1060;52.492;13.388;2023-05-16T04:29:34;31.43;;;28.33;;
2107;SDS011;1060;52.492;13.388;2023-05-16T04:32:02;27.93;;;24.93;;
2107;SDS011;1060;52.492;13.388;2023-05-16T04:34:29;24.03;;;21.70;;
2107;SDS011;1060;52.492;13.388;2023-05-16T04:36:55;26.50;;;24.00;;
2107;SDS011;1060;52.492;13.388;2023-05-16T04:39:21;22.97;;;20.87;;
2107;SDS011;1060;52.492;13.388;2023-05-16T04:41:48;23.93;;;21.63;;
2107;SDS011;1060;52.492;13.388;2023-05-16T04:44:14;22.00;;;20.00;;
2107;SDS011;1060;52.492;13.388;2023-05-16T04:46:43;20.77;;;18.70;;
2107;SDS011;1060;52.492;13.388;2023-05-16T04:49:21;20.07;;;18.20;;
2107;SDS011;1060;52.492;13.388;2023-05-16T04:51:52;21.23;;;18.30;;
2107;SDS011;1060;52.492;13.388;2023-05-16T04:54:21;21.03;;;19.13;;
2107;SDS011;1060;52.492;13.388;2023-05-16T04:56:47;21.33;;;19.20;;
2107;SDS011;1060;52.492;13.388;2023-05-16T04:59:15;23.83;;;21.73;;
2107;SDS011;1060;52.492;13.388;2023-05-16T05:01:42;24.70;;;22.50;;
2107;SDS011;1060;52.492;13.388;2023-05-16T05:04:08;21.40;;;19.40;;
2107;SDS011;1060;52.492;13.388;2023-05-16T05:06:36;22.20;;;20.20;;
2107;SDS011;1060;52.492;13.388;2023-05-16T05:09:02;24.23;;;20.50;;
2107;SDS011;1060;52.492;13.388;2023-05-16T05:11:31;22.10;;;19.73;;
2107;SDS011;1060;52.492;13.388;2023-05-16T05:14:06;20.73;;;18.33;;
2107;SDS011;1060;52.492;13.388;2023-05-16T05:16:41;22.57;;;20.20;;
2107;SDS011;1060;52.492;13.388;2023-05-16T05:19:08;24.30;;;21.13;;
2107;SDS011;1060;52.492;13.388;2023-05-16T05:21:37;20.83;;;18.77;;
2107;SDS011;1060;52.492;13.388;2023-05-16T05:24:06;23.93;;;21.37;;
2107;SDS011;1060;52.492;13.388;2023-05-16T05:26:38;26.03;;;23.40;;
2107;SDS011;1060;52.492;13.388;2023-05-16T05:29:05;22.97;;;20.43;;
2107;SDS011;1060;52.492;13.388;2023-05-16T05:31:36;23.70;;;21.43;;
2107;SDS011;1060;52.492;13.388;2023-05-16T05:34:05;25.63;;;23.23;;
2107;SDS011;1060;52.492;13.388;2023-05-16T05:36:32;26.53;;;23.97;;
2107;SDS011;1060;52.492;13.388;2023-05-16T05:38:58;24.60;;;22.10;;
2107;SDS011;1060;52.492;13.388;2023-05-16T05:41:24;25.10;;;22.60;;
2107;SDS011;1060;52.492;13.388;2023-05-16T05:43:51;23.87;;;21.47;;
2107;SDS011;1060;52.492;13.388;2023-05-16T05:46:20;22.60;;;20.40;;
2107;SDS011;1060;52.492;13.388;2023-05-16T05:48:46;20.90;;;19.10;;
2107;SDS011;1060;52.492;13.388;2023-05-16T05:51:13;23.57;;;18.20;;
2107;SDS011;1060;52.492;13.388;2023-05-16T05:53:42;20.53;;;18.63;;
2107;SDS011;1060;52.492;13.388;2023-05-16T05:56:09;19.90;;;17.90;;
2107;SDS011;1060;52.492;13.388;2023-05-16T05:58:35;20.57;;;18.60;;
2107;SDS011;1060;52.492;13.388;2023-05-16T06:01:01;23.13;;;19.77;;
2107;SDS011;1060;52.492;13.388;2023-05-16T06:03:35;17.00;;;15.40;;
2107;SDS011;1060;52.492;13.388;2023-05-16T06:06:05;21.73;;;17.37;;
2107;SDS011;1060;52.492;13.388;2023-05-16T06:11:36;16.97;;;15.50;;
2107;SDS011;1060;52.492;13.388;2023-05-16T06:14:06;17.63;;;16.00;;
2107;SDS011;1060;52.492;13.388;2023-05-16T06:16:32;15.70;;;14.20;;
2107;SDS011;1060;52.492;13.388;2023-05-16T06:18:59;17.30;;;15.10;;
2107;SDS011;1060;52.492;13.388;2023-05-16T06:21:25;15.83;;;14.53;;
2107;SDS011;1060;52.492;13.388;2023-05-16T06:23:54;17.13;;;15.17;;
2107;SDS011;1060;52.492;13.388;2023-05-16T06:26:27;15.43;;;13.87;;
2107;SDS011;1060;52.492;13.388;2023-05-16T06:28:59;16.60;;;14.67;;
2107;SDS011;1060;52.492;13.388;2023-05-16T06:31:26;17.17;;;14.03;;
2107;SDS011;1060;52.492;13.388;2023-05-16T06:34:03;15.10;;;13.33;;
2107;SDS011;1060;52.492;13.388;2023-05-16T06:54:48;14.03;;;12.73;;
2107;SDS011;1060;52.492;13.388;2023-05-16T07:01:51;11.90;;;10.90;;
2107;SDS011;1060;52.492;13.388;2023-05-16T07:43:58;7.27;;;6.57;;
2107;SDS011;1060;52.492;13.388;2023-05-16T07:47:07;7.30;;;6.60;;
2107;SDS011;1060;52.492;13.388;2023-05-16T07:57:02;11.63;;;7.33;;
2107;SDS011;1060;52.492;13.388;2023-05-16T08:04:18;6.50;;;5.40;;
2107;SDS011;1060;52.492;13.388;2023-05-16T08:06:42;7.13;;;6.20;;
2107;SDS011;1060;52.492;13.388;2023-05-16T08:16:30;8.97;;;6.33;;
2107;SDS011;1060;52.492;13.388;2023-05-16T08:26:35;7.00;;;6.40;;
2107;SDS011;1060;52.492;13.388;2023-05-16T08:32:57;6.00;;;4.77;;
2107;SDS011;1060;52.492;13.388;2023-05-16T08:35:41;6.90;;;5.60;;
2107;SDS011;1060;52.492;13.388;2023-05-16T08:38:08;4.40;;;4.10;;
2107;SDS011;1060;52.492;13.388;2023-05-16T08:40:34;7.80;;;5.33;;
2107;SDS011;1060;52.492;13.388;2023-05-16T08:43:01;5.17;;;4.77;;
2107;SDS011;1060;52.492;13.388;2023-05-16T08:45:27;4.63;;;4.30;;
2107;SDS011;1060;52.492;13.388;2023-05-16T08:47:59;6.33;;;5.07;;
2107;SDS011;1060;52.492;13.388;2023-05-16T08:50:34;5.60;;;4.53;;
2107;SDS011;1060;52.492;13.388;2023-05-16T08:53:07;4.93;;;4.27;;
2107;SDS011;1060;52.492;13.388;2023-05-16T08:55:35;4.37;;;3.97;;
2107;SDS011;1060;52.492;13.388;2023-05-16T08:58:18;3.50;;;3.27;;
2107;SDS011;1060;52.492;13.388;2023-05-16T09:00:45;4.93;;;3.47;;
2107;SDS011;1060;52.492;13.388;2023-05-16T09:03:12;5.40;;;3.40;;
2107;SDS011;1060;52.492;13.388;2023-05-16T09:05:38;7.60;;;4.07;;
2107;SDS011;1060;52.492;13.388;2023-05-16T09:08:26;3.90;;;2.90;;
2107;SDS011;1060;52.492;13.388;2023-05-16T09:10:57;5.33;;;3.20;;
2107;SDS011;1060;52.492;13.388;2023-05-16T09:13:33;6.73;;;2.97;;
2107;SDS011;1060;52.492;13.388;2023-05-16T09:16:11;4.57;;;3.20;;
2107;SDS011;1060;52.492;13.388;2023-05-16T09:22:27;4.33;;;3.33;;
2107;SDS011;1060;52.492;13.388;2023-05-16T09:25:30;4.83;;;3.77;;
2107;SDS011;1060;52.492;13.388;2023-05-16T09:31:02;4.67;;;3.10;;
2107;SDS011;1060;52.492;13.388;2023-05-16T09:33:41;4.17;;;2.90;;
2107;SDS011;1060;52.492;13.388;2023-05-16T09:36:11;5.90;;;4.03;;
2107;SDS011;1060;52.492;13.388;2023-05-16T09:38:39;5.70;;;3.33;;
2107;SDS011;1060;52.492;13.388;2023-05-16T09:41:08;3.83;;;3.10;;
2107;SDS011;1060;52.492;13.388;2023-05-16T09:43:39;11.03;;;4.53;;
2107;SDS011;1060;52.492;13.388;2023-05-16T09:46:11;4.17;;;2.20;;
2107;SDS011;1060;52.492;13.388;2023-05-16T09:48:39;3.33;;;2.40;;
2107;SDS011;1060;52.492;13.388;2023-05-16T09:51:11;5.60;;;2.50;;
2107;SDS011;1060;52.492;13.388;2023-05-16T09:53:38;8.00;;;3.30;;
2107;SDS011;1060;52.492;13.388;2023-05-16T09:56:07;4.03;;;2.33;;
2107;SDS011;1060;52.492;13.388;2023-05-16T09:58:34;2.60;;;2.40;;
2107;SDS011;1060;52.492;13.388;2023-05-16T10:01:01;4.77;;;2.73;;
2107;SDS011;1060;52.492;13.388;2023-05-16T10:03:32;4.63;;;2.40;;
2107;SDS011;1060;52.492;13.388;2023-05-16T10:05:59;4.07;;;3.13;;
2107;SDS011;1060;52.492;13.388;2023-05-16T10:08:25;6.33;;;3.70;;
2107;SDS011;1060;52.492;13.388;2023-05-16T10:10:54;5.10;;;2.83;;
2107;SDS011;1060;52.492;13.388;2023-05-16T10:13:31;5.40;;;3.53;;
2107;SDS011;1060;52.492;13.388;2023-05-16T10:16:01;5.50;;;4.23;;
2107;SDS011;1060;52.492;13.388;2023-05-16T10:18:31;4.40;;;4.00;;
2107;SDS011;1060;52.492;13.388;2023-05-16T10:21:01;4.83;;;4.23;;
2107;SDS011;1060;52.492;13.388;2023-05-16T10:23:29;5.13;;;4.20;;
2107;SDS011;1060;52.492;13.388;2023-05-16T10:25:56;4.67;;;4.17;;
2107;SDS011;1060;52.492;13.388;2023-05-16T10:28:25;7.30;;;5.13;;
2107;SDS011;1060;52.492;13.388;2023-05-16T10:30:55;4.23;;;3.80;;
2107;SDS011;1060;52.492;13.388;2023-05-16T10:33:23;5.67;;;3.87;;
2107;SDS011;1060;52.492;13.388;2023-05-16T10:35:50;12.80;;;3.63;;
2107;SDS011;1060;52.492;13.388;2023-05-16T10:38:19;5.97;;;3.93;;
2107;SDS011;1060;52.492;13.388;2023-05-16T10:40:48;5.33;;;3.10;;
2107;SDS011;1060;52.492;13.388;2023-05-16T10:43:28;5.20;;;3.83;;
2107;SDS011;1060;52.492;13.388;2023-05-16T10:48:27;8.57;;;3.37;;
2107;SDS011;1060;52.492;13.388;2023-05-16T10:50:57;5.23;;;4.57;;
2107;SDS011;1060;52.492;13.388;2023-05-16T10:53:35;6.30;;;3.67;;
2107;SDS011;1060;52.492;13.388;2023-05-16T10:56:13;8.87;;;4.43;;
2107;SDS011;1060;52.492;13.388;2023-05-16T10:58:40;8.13;;;4.43;;
2107;SDS011;1060;52.492;13.388;2023-05-16T11:06:24;10.13;;;4.57;;
2107;SDS011;1060;52.492;13.388;2023-05-16T11:09:03;7.00;;;3.10;;
2107;SDS011;1060;52.492;13.388;2023-05-16T11:14:24;7.67;;;3.47;;
2107;SDS011;1060;52.492;13.388;2023-05-16T11:17:03;12.10;;;3.77;;
2107;SDS011;1060;52.492;13.388;2023-05-16T11:19:38;5.20;;;2.73;;
2107;SDS011;1060;52.492;13.388;2023-05-16T11:22:09;8.77;;;3.53;;
2107;SDS011;1060;52.492;13.388;2023-05-16T11:24:37;11.43;;;4.07;;
2107;SDS011;1060;52.492;13.388;2023-05-16T11:27:43;10.13;;;4.83;;
2107;SDS011;1060;52.492;13.388;2023-05-16T11:30:16;7.70;;;3.30;;
2107;SDS011;1060;52.492;13.388;2023-05-16T11:32:51;9.40;;;3.17;;
2107;SDS011;1060;52.492;13.388;2023-05-16T11:35:27;10.17;;;4.07;;
2107;SDS011;1060;52.492;13.388;2023-05-16T11:37:57;12.70;;;3.90;;
2107;SDS011;1060;52.492;13.388;2023-05-16T11:40:25;6.43;;;5.10;;
2107;SDS011;1060;52.492;13.388;2023-05-16T11:43:03;7.93;;;4.77;;
2107;SDS011;1060;52.492;13.388;2023-05-16T11:45:33;12.20;;;5.17;;
2107;SDS011;1060;52.492;13.388;2023-05-16T11:48:08;5.03;;;2.80;;
2107;SDS011;1060;52.492;13.388;2023-05-16T11:50:36;8.83;;;3.40;;
2107;SDS011;1060;52.492;13.388;2023-05-16T11:53:13;6.87;;;3.93;;
2107;SDS011;1060;52.492;13.388;2023-05-16T11:55:50;11.00;;;2.80;;
2107;SDS011;1060;52.492;13.388;2023-05-16T11:58:34;8.50;;;3.10;;
2107;SDS011;1060;52.492;13.388;2023-05-16T12:01:20;10.87;;;3.70;;
2107;SDS011;1060;52.492;13.388;2023-05-16T12:04:00;6.10;;;3.30;;
2107;SDS011;1060;52.492;13.388;2023-05-16T12:07:26;10.77;;;5.20;;
2107;SDS011;1060;52.492;13.388;2023-05-16T12:12:50;12.40;;;4.70;;
2107;SDS011;1060;52.492;13.388;2023-05-16T12:15:36;8.73;;;3.47;;
2107;SDS011;1060;52.492;13.388;2023-05-16T12:18:11;10.17;;;3.47;;
2107;SDS011;1060;52.492;13.388;2023-05-16T12:20:52;5.00;;;3.03;;
2107;SDS011;1060;52.492;13.388;2023-05-16T12:23:27;6.73;;;2.77;;
2107;SDS011;1060;52.492;13.388;2023-05-16T12:26:22;8.60;;;3.90;;
2107;SDS011;1060;52.492;13.388;2023-05-16T12:28:53;6.93;;;3.30;;
2107;SDS011;1060;52.492;13.388;2023-05-16T12:31:22;4.13;;;2.80;;
2107;SDS011;1060;52.492;13.388;2023-05-16T12:33:58;7.37;;;3.53;;
2107;SDS011;1060;52.492;13.388;2023-05-16T12:36:34;9.97;;;4.10;;
2107;SDS011;1060;52.492;13.388;2023-05-16T12:39:03;8.23;;;2.27;;
2107;SDS011;1060;52.492;13.388;2023-05-16T12:41:52;6.57;;;2.87;;
2107;SDS011;1060;52.492;13.388;2023-05-16T12:50:18;7.70;;;2.80;;
2107;SDS011;1060;52.492;13.388;2023-05-16T12:53:16;8.20;;;3.40;;
2107;SDS011;1060;52.492;13.388;2023-05-16T12:55:50;4.03;;;2.40;;
2107;SDS011;1060;52.492;13.388;2023-05-16T12:58:25;5.10;;;2.80;;
2107;SDS011;1060;52.492;13.388;2023-05-16T13:01:29;4.20;;;3.00;;
2107;SDS011;1060;52.492;13.388;2023-05-16T13:03:59;5.13;;;3.30;;
2107;SDS011;1060;52.492;13.388;2023-05-16T13:06:47;15.70;;;4.33;;
2107;SDS011;1060;52.492;13.388;2023-05-16T13:09:17;5.37;;;2.03;;
2107;SDS011;1060;52.492;13.388;2023-05-16T13:11:44;10.50;;;3.13;;
2107;SDS011;1060;52.492;13.388;2023-05-16T13:14:10;6.67;;;2.77;;
2107;SDS011;1060;52.492;13.388;2023-05-16T13:16:37;5.40;;;3.23;;
2107;SDS011;1060;52.492;13.388;2023-05-16T13:19:06;5.97;;;2.20;;
2107;SDS011;1060;52.492;13.388;2023-05-16T13:21:32;4.90;;;2.30;;
2107;SDS011;1060;52.492;13.388;2023-05-16T13:23:59;4.47;;;2.30;;
2107;SDS011;1060;52.492;13.388;2023-05-16T13:26:25;8.23;;;2.83;;
2107;SDS011;1060;52.492;13.388;2023-05-16T13:28:52;6.87;;;3.90;;
2107;SDS011;1060;52.492;13.388;2023-05-16T13:31:21;8.93;;;3.43;;
2107;SDS011;1060;52.492;13.388;2023-05-16T13:33:48;12.70;;;2.27;;
2107;SDS011;1060;52.492;13.388;2023-05-16T13:36:17;3.23;;;2.17;;
2107;SDS011;1060;52.492;13.388;2023-05-16T13:38:43;6.47;;;2.23;;
2107;SDS011;1060;52.492;13.388;2023-05-16T13:41:13;6.90;;;4.13;;
2107;SDS011;1060;52.492;13.388;2023-05-16T13:43:48;7.87;;;3.07;;
2107;SDS011;1060;52.492;13.388;2023-05-16T13:46:14;7.20;;;2.77;;
2107;SDS011;1060;52.492;13.388;2023-05-16T13:48:40;7.10;;;3.10;;
2107;SDS011;1060;52.492;13.388;2023-05-16T13:51:09;6.30;;;3.37;;
2107;SDS011;1060;52.492;13.388;2023-05-16T13:53:35;10.03;;;4.37;;
2107;SDS011;1060;52.492;13.388;2023-05-16T13:56:03;10.13;;;3.67;;
2107;SDS011;1060;52.492;13.388;2023-05-16T13:58:32;5.63;;;2.00;;
2107;SDS011;1060;52.492;13.388;2023-05-16T14:01:10;2.90;;;2.03;;
2107;SDS011;1060;52.492;13.388;2023-05-16T14:03:41;6.57;;;2.60;;
2107;SDS011;1060;52.492;13.388;2023-05-16T14:06:08;8.10;;;2.47;;
2107;SDS011;1060;52.492;13.388;2023-05-16T14:08:34;7.00;;;2.60;;
2107;SDS011;1060;52.492;13.388;2023-05-16T14:11:01;6.57;;;2.33;;
2107;SDS011;1060;52.492;13.388;2023-05-16T14:13:30;6.23;;;3.47;;
2107;SDS011;1060;52.492;13.388;2023-05-16T14:15:57;5.47;;;2.90;;
2107;SDS011;1060;52.492;13.388;2023-05-16T14:18:42;7.33;;;2.90;;
2107;SDS011;1060;52.492;13.388;2023-05-16T14:21:08;3.83;;;2.43;;
2107;SDS011;1060;52.492;13.388;2023-05-16T14:23:35;3.37;;;2.00;;
2107;SDS011;1060;52.492;13.388;2023-05-16T14:26:04;2.70;;;1.40;;
2107;SDS011;1060;52.492;13.388;2023-05-16T14:28:30;4.33;;;3.27;;
2107;SDS011;1060;52.492;13.388;2023-05-16T14:58:57;5.30;;;2.17;;
2107;SDS011;1060;52.492;13.388;2023-05-16T15:10:15;7.10;;;2.20;;
2107;SDS011;1060;52.492;13.388;2023-05-16T15:23:25;6.33;;;1.60;;
2107;SDS011;1060;52.492;13.388;2023-05-16T15:26:01;3.33;;;2.20;;
2107;SDS011;1060;52.492;13.388;2023-05-16T15:28:37;6.47;;;2.17;;
2107;SDS011;1060;52.492;13.388;2023-05-16T15:31:24;3.67;;;2.47;;
2107;SDS011;1060;52.492;13.388;2023-05-16T15:33:53;3.07;;;1.83;;
2107;SDS011;1060;52.492;13.388;2023-05-16T15:36:29;5.37;;;1.77;;
2107;SDS011;1060;52.492;13.388;2023-05-16T15:38:59;3.43;;;1.83;;
2107;SDS011;1060;52.492;13.388;2023-05-16T15:41:33;5.83;;;2.63;;
2107;SDS011;1060;52.492;13.388;2023-05-16T15:44:02;4.03;;;1.77;;
2107;SDS011;1060;52.492;13.388;2023-05-16T15:46:29;3.17;;;1.73;;
2107;SDS011;1060;52.492;13.388;2023-05-16T15:49:00;2.63;;;1.80;;
2107;SDS011;1060;52.492;13.388;2023-05-16T15:51:55;4.80;;;2.10;;
2107;SDS011;1060;52.492;13.388;2023-05-16T15:54:24;2.60;;;1.83;;
2107;SDS011;1060;52.492;13.388;2023-05-16T15:57:01;2.43;;;1.40;;
2107;SDS011;1060;52.492;13.388;2023-05-16T16:03:05;2.40;;;1.80;;
2107;SDS011;1060;52.492;13.388;2023-05-16T16:05:40;1.70;;;1.37;;
2107;SDS011;1060;52.492;13.388;2023-05-16T16:08:19;3.13;;;1.67;;
2107;SDS011;1060;52.492;13.388;2023-05-16T16:10:50;3.10;;;1.47;;
2107;SDS011;1060;52.492;13.388;2023-05-16T16:13:16;2.60;;;1.20;;
2107;SDS011;1060;52.492;13.388;2023-05-16T16:15:45;4.90;;;1.57;;
2107;SDS011;1060;52.492;13.388;2023-05-16T16:18:24;1.97;;;1.20;;
2107;SDS011;1060;52.492;13.388;2023-05-16T16:20:54;4.30;;;1.73;;
2107;SDS011;1060;52.492;13.388;2023-05-16T16:23:40;3.80;;;1.57;;
2107;SDS011;1060;52.492;13.388;2023-05-16T16:26:23;5.63;;;2.80;;
2107;SDS011;1060;52.492;13.388;2023-05-16T16:29:00;2.43;;;1.67;;
2107;SDS011;1060;52.492;13.388;2023-05-16T16:31:56;3.47;;;1.37;;
2107;SDS011;1060;52.492;13.388;2023-05-16T16:34:43;2.70;;;1.73;;
2107;SDS011;1060;52.492;13.388;2023-05-16T16:37:24;6.77;;;1.47;;
2107;SDS011;1060;52.492;13.388;2023-05-16T16:39:58;3.30;;;2.30;;
2107;SDS011;1060;52.492;13.388;2023-05-16T16:42:26;5.70;;;2.70;;
2107;SDS011;1060;52.492;13.388;2023-05-16T16:44:57;4.43;;;2.90;;
2107;SDS011;1060;52.492;13.388;2023-05-16T16:47:36;3.43;;;1.50;;
2107;SDS011;1060;52.492;13.388;2023-05-16T16:50:19;6.20;;;2.90;;
2107;SDS011;1060;52.492;13.388;2023-05-16T16:56:15;7.10;;;2.80;;
2107;SDS011;1060;52.492;13.388;2023-05-16T17:02:17;4.80;;;2.27;;
2107;SDS011;1060;52.492;13.388;2023-05-16T17:08:11;5.97;;;2.70;;
2107;SDS011;1060;52.492;13.388;2023-05-16T17:11:24;2.30;;;1.83;;
2107;SDS011;1060;52.492;13.388;2023-05-16T17:13:53;4.67;;;2.13;;
2107;SDS011;1060;52.492;13.388;2023-05-16T17:16:24;3.63;;;2.07;;
2107;SDS011;1060;52.492;13.388;2023-05-16T17:18:52;4.23;;;1.80;;
2107;SDS011;1060;52.492;13.388;2023-05-16T17:21:23;2.70;;;1.40;;
2107;SDS011;1060;52.492;13.388;2023-05-16T17:23:53;2.00;;;1.50;;
2107;SDS011;1060;52.492;13.388;2023-05-16T17:26:22;3.27;;;1.50;;
2107;SDS011;1060;52.492;13.388;2023-05-16T17:28:55;3.10;;;1.20;;
2107;SDS011;1060;52.492;13.388;2023-05-16T17:31:24;4.33;;;1.60;;
2107;SDS011;1060;52.492;13.388;2023-05-16T17:33:53;3.73;;;1.37;;
2107;SDS011;1060;52.492;13.388;2023-05-16T17:36:19;2.77;;;1.70;;
2107;SDS011;1060;52.492;13.388;2023-05-16T17:38:46;7.03;;;3.00;;
2107;SDS011;1060;52.492;13.388;2023-05-16T17:41:13;4.90;;;2.40;;
2107;SDS011;1060;52.492;13.388;2023-05-16T17:43:39;2.87;;;2.10;;
2107;SDS011;1060;52.492;13.388;2023-05-16T17:46:11;2.53;;;1.10;;
2107;SDS011;1060;52.492;13.388;2023-05-16T17:48:39;5.60;;;1.57;;
2107;SDS011;1060;52.492;13.388;2023-05-16T17:51:09;5.23;;;2.17;;
2107;SDS011;1060;52.492;13.388;2023-05-16T17:53:36;2.20;;;1.50;;
2107;SDS011;1060;52.492;13.388;2023-05-16T17:56:02;2.30;;;2.10;;
2107;SDS011;1060;52.492;13.388;2023-05-16T17:58:29;3.20;;;1.57;;
2107;SDS011;1060;52.492;13.388;2023-05-16T18:00:55;2.30;;;1.87;;
2107;SDS011;1060;52.492;13.388;2023-05-16T18:03:21;3.00;;;1.43;;
2107;SDS011;1060;52.492;13.388;2023-05-16T18:05:51;2.70;;;1.20;;
2107;SDS011;1060;52.492;13.388;2023-05-16T18:08:17;4.07;;;2.37;;
2107;SDS011;1060;52.492;13.388;2023-05-16T18:10:54;4.10;;;1.97;;
2107;SDS011;1060;52.492;13.388;2023-05-16T18:13:21;6.23;;;1.37;;
2107;SDS011;1060;52.492;13.388;2023-05-16T18:16:02;3.30;;;1.70;;
2107;SDS011;1060;52.492;13.388;2023-05-16T18:18:31;2.07;;;1.50;;
2107;SDS011;1060;52.492;13.388;2023-05-16T18:21:06;3.83;;;1.43;;
2107;SDS011;1060;52.492;13.388;2023-05-16T18:23:36;9.60;;;1.70;;
2107;SDS011;1060;52.492;13.388;2023-05-16T18:26:08;4.77;;;1.33;;
2107;SDS011;1060;52.492;13.388;2023-05-16T18:29:29;4.93;;;1.70;;
2107;SDS011;1060;52.492;13.388;2023-05-16T18:31:49;3.90;;;1.73;;
2107;SDS011;1060;52.492;13.388;2023-05-16T18:34:39;4.13;;;1.40;;
2107;SDS011;1060;52.492;13.388;2023-05-16T18:37:17;1.80;;;1.30;;
2107;SDS011;1060;52.492;13.388;2023-05-16T18:39:56;2.83;;;1.77;;
2107;SDS011;1060;52.492;13.388;2023-05-16T19:01:05;2.10;;;1.40;;
2107;SDS011;1060;52.492;13.388;2023-05-16T19:06:56;3.47;;;1.67;;
2107;SDS011;1060;52.492;13.388;2023-05-16T20:40:47;6.40;;;2.23;;
2107;SDS011;1060;52.492;13.388;2023-05-16T22:42:24;4.87;;;2.40;;
2107;SDS011;1060;52.492;13.388;2023-05-16T22:45:22;1.77;;;1.67;;
2107;SDS011;1060;52.492;13.388;2023-05-16T22:47:56;5.40;;;2.30;;